Niagara District Airport
CYSN : rendu visible

Aérodrome :











RETROUVEZ-NOUS SUR...

 
LOGIN :

S'inscrire | Disclaimer

   EN    FR    IT 

 









Légende :    VFR   VFR Marginal   IFR   IFR Intensif   IFR Très Intensif
Visi : 
Plafond : 
>= 8 km
>= 3000ft
5 à 8 km
1000 à 3000 ft
1500m à 5 km
500 à 1000 ft
800 à 1500m
200 à 500 ft
< 800m
< 200 ft
Symboles :   Orages  Brouillard  Fortes neiges  Fortes précipitations  Vent > 20 kt






- Altitude de l'aérodrome : 321 ft
- Code IATA : YCM


CYSN - Niagara District

DERNIER METAR :
  • 031234Z 20012G18KT 12SM SCT020 OVC093 17/17 A2964 RMK SC4AC4 PRESRR SLP038 DENSITY ALT 1000FT

METARs EXPIRÉS :
  • 031200Z 32002KT 12SM -RA OVC022 17/17 A2962 RMK SC8 SLP030 DENSITY ALT 1000FT
  • 031100Z 30005KT 290V350 8SM -RA OVC020 17/17 A2968 RMK SC8 PRESFR SLP052 DENSITY ALT 900FT

Prévision TAF périmée.
FIR CZYZ / Amérique du Nord



MET'MAP, la Météo Aéronautique d'un coup d'oeil ! - Copyright ORBIFLY Décembre 2007 - Disclaimer

ORBIFLY MET'MAP TEAM :

Programmation & Développement : Alexandra Zaïnal
Sur une idée originale de : Baudouin d'Aumeries
Assistance à la programmation : Marc-Olivier Méhu
Soutien technique & logistique : Manuel Goepfert

Contact : metmap@orbifly.com




SOURCES & CREDITS :

   NOAA       Earth
Advisory